Time;durP1;ratioP1;P1;durP2;ratioP2;P2;SDS_P1;SDS_P2;PMS_P1;PMS_P2;Temp;Humidity;BMP_temperature;BMP_pressure;BME280_temperature;BME280_humidity;BME280_pressure;Samples;Min_cycle;Max_cycle;Signal;HPM_P1;HPM_P2
2020/12/28 00:00:09;;;;;;;20.30;10.20;;;;;;;-1.69;85.64;99883.63;1771489;81;21204;-65
2020/12/28 00:02:38;;;;;;;23.32;9.78;;;;;;;-1.68;85.65;99885.80;1771395;80;20966;-65
2020/12/28 00:05:10;;;;;;;18.30;9.83;;;;;;;-1.68;85.57;99889.84;1771433;81;21540;-65
2020/12/28 00:07:38;;;;;;;20.45;10.93;;;;;;;-1.69;85.53;99885.50;1771727;81;21484;-65
2020/12/28 00:10:11;;;;;;;20.37;10.53;;;;;;;-1.69;85.54;99894.40;1771522;80;20930;-65
2020/12/28 00:12:49;;;;;;;20.90;10.25;;;;;;;-1.70;85.44;99886.03;1771492;81;21493;-65
2020/12/28 00:15:21;;;;;;;23.18;10.45;;;;;;;-1.69;85.70;99893.58;1771422;81;21068;-65
2020/12/28 00:17:57;;;;;;;24.55;10.72;;;;;;;-1.70;85.70;99881.98;1771686;81;21449;-65
2020/12/28 00:20:27;;;;;;;24.98;11.28;;;;;;;-1.70;85.73;99882.52;1771482;81;21564;-65
2020/12/28 00:22:54;;;;;;;24.12;10.63;;;;;;;-1.71;85.71;99860.16;1771508;81;21145;-66
2020/12/28 00:25:26;;;;;;;26.05;10.60;;;;;;;-1.71;85.91;99872.80;1771412;81;21206;-66
2020/12/28 00:27:54;;;;;;;20.72;9.98;;;;;;;-1.72;85.78;99880.58;1771584;81;21056;-66
2020/12/28 00:30:22;;;;;;;22.75;10.55;;;;;;;-1.72;85.75;99869.28;1771471;81;21486;-66
2020/12/28 00:32:49;;;;;;;21.45;10.75;;;;;;;-1.71;85.77;99870.10;1771418;81;21990;-66
2020/12/28 00:35:17;;;;;;;21.75;10.70;;;;;;;-1.68;85.83;99865.61;1771416;81;21135;-66
2020/12/28 00:37:44;;;;;;;22.58;10.63;;;;;;;-1.68;85.65;99866.95;1751888;81;21434;-66
2020/12/28 00:40:13;;;;;;;23.40;10.90;;;;;;;-1.66;85.53;99864.86;1771398;79;20958;-65
2020/12/28 00:42:41;;;;;;;24.63;11.08;;;;;;;-1.64;85.48;99849.83;1771483;81;21473;-65
2020/12/28 00:45:09;;;;;;;26.23;12.23;;;;;;;-1.61;85.41;99858.79;1771407;81;20934;-65
2020/12/28 00:47:37;;;;;;;26.30;12.30;;;;;;;-1.59;85.65;99833.28;1771329;81;21096;-65
2020/12/28 00:50:05;;;;;;;25.20;12.47;;;;;;;-1.57;85.14;99839.78;1771446;81;21257;-64
2020/12/28 00:52:34;;;;;;;21.20;10.40;;;;;;;-1.58;84.92;99837.62;1751767;81;21155;-65
2020/12/28 00:55:03;;;;;;;26.07;12.03;;;;;;;-1.58;84.99;99837.62;1771482;81;21595;-65
2020/12/28 00:57:32;;;;;;;26.45;12.88;;;;;;;-1.59;85.38;99830.59;1771416;81;20890;-66
2020/12/28 01:00:00;;;;;;;21.55;11.22;;;;;;;-1.58;85.19;99836.27;1771488;81;21081;-66
2020/12/28 01:02:31;;;;;;;25.25;11.30;;;;;;;-1.59;85.34;99834.63;1770084;80;20950;-66
2020/12/28 01:05:01;;;;;;;31.60;13.38;;;;;;;-1.59;85.26;99834.63;1771225;80;21525;-65
2020/12/28 01:07:31;;;;;;;29.75;13.15;;;;;;;-1.59;85.21;99831.94;1771075;80;21068;-65
2020/12/28 01:10:01;;;;;;;26.33;13.13;;;;;;;-1.59;85.31;99834.63;1770179;80;21477;-65
2020/12/28 01:12:32;;;;;;;30.97;12.78;;;;;;;-1.59;85.39;99827.89;1771450;81;20922;-64
2020/12/28 01:15:01;;;;;;;33.53;14.90;;;;;;;-1.60;85.53;99823.56;1771643;80;21917;-64
2020/12/28 01:17:31;;;;;;;27.17;12.82;;;;;;;-1.60;85.50;99817.36;1770624;80;21725;-64
2020/12/28 01:20:00;;;;;;;27.50;13.13;;;;;;;-1.60;85.33;99817.36;1769797;80;21069;-64
2020/12/28 01:22:27;;;;;;;28.17;13.32;;;;;;;-1.63;85.37;99821.33;1771372;81;21118;-64
2020/12/28 01:24:57;;;;;;;27.25;12.78;;;;;;;-1.63;85.62;99822.67;1771418;81;21112;-65
2020/12/28 01:27:25;;;;;;;24.95;12.65;;;;;;;-1.62;85.61;99809.52;1771458;81;22022;-65
2020/12/28 01:29:53;;;;;;;28.00;13.28;;;;;;;-1.61;85.91;99799.56;1771339;81;21184;-65
2020/12/28 01:32:21;;;;;;;30.62;13.78;;;;;;;-1.62;85.89;99792.54;1771534;81;21481;-65
2020/12/28 01:34:51;;;;;;;31.73;13.65;;;;;;;-1.63;86.04;99783.64;1768789;80;20969;-66
2020/12/28 01:37:19;;;;;;;29.40;13.72;;;;;;;-1.64;86.26;99780.66;1771443;81;20949;-65
2020/12/28 01:39:50;;;;;;;28.23;13.20;;;;;;;-1.61;86.45;99766.73;1771667;79;21197;-66
2020/12/28 01:42:19;;;;;;;29.72;14.30;;;;;;;-1.58;86.32;99762.23;1751951;81;20934;-66
2020/12/28 01:44:48;;;;;;;31.73;13.70;;;;;;;-1.58;85.93;99751.47;1771118;80;21152;-66
2020/12/28 01:47:18;;;;;;;29.92;13.48;;;;;;;-1.57;85.98;99749.06;1765789;80;21587;-66
2020/12/28 01:49:46;;;;;;;28.07;12.50;;;;;;;-1.58;85.46;99746.08;1742160;82;21562;-66
2020/12/28 01:52:14;;;;;;;33.58;14.58;;;;;;;-1.56;85.74;99737.25;1742162;82;21359;-66
2020/12/28 01:54:43;;;;;;;27.02;13.08;;;;;;;-1.54;85.66;99739.18;1742044;82;21048;-66
2020/12/28 01:57:14;;;;;;;36.15;14.63;;;;;;;-1.53;85.62;99733.27;1742041;82;21166;-65
2020/12/28 01:59:43;;;;;;;34.05;14.18;;;;;;;-1.53;85.38;99734.09;1741177;82;21182;-65
2020/12/28 02:02:13;;;;;;;31.20;13.18;;;;;;;-1.52;85.61;99731.69;1741722;82;21158;-68
2020/12/28 02:04:41;;;;;;;32.58;14.78;;;;;;;-1.52;85.66;99732.22;1742133;82;21276;-66
2020/12/28 02:07:09;;;;;;;32.98;13.83;;;;;;;-1.51;85.82;99723.09;1741975;82;21490;-66
2020/12/28 02:09:41;;;;;;;34.90;14.65;;;;;;;-1.52;85.89;99728.18;1742062;82;21131;-66
2020/12/28 02:12:09;;;;;;;29.65;15.88;;;;;;;-1.52;85.88;99719.58;1716407;82;20893;-66
2020/12/28 02:14:37;;;;;;;29.52;14.43;;;;;;;-1.49;86.09;99720.98;1742131;82;21141;-65
2020/12/28 02:17:06;;;;;;;31.73;14.65;;;;;;;-1.48;86.02;99730.17;1739642;82;21387;-66
2020/12/28 02:19:36;;;;;;;29.98;13.10;;;;;;;-1.47;85.92;99730.47;1742027;82;21040;-66
2020/12/28 02:22:05;;;;;;;25.23;11.78;;;;;;;-1.47;85.65;99722.39;1742112;82;21024;-65
2020/12/28 02:24:34;;;;;;;29.92;13.72;;;;;;;-1.45;85.75;99723.51;1740639;82;20953;-66
2020/12/28 02:27:02;;;;;;;30.25;14.93;;;;;;;-1.42;85.68;99721.69;1742099;82;20932;-66
2020/12/28 02:29:30;;;;;;;25.77;13.22;;;;;;;-1.42;85.59;99719.00;1742121;82;21371;-65
2020/12/28 02:31:59;;;;;;;30.37;13.45;;;;;;;-1.42;85.68;99710.39;1715312;82;21091;-65
2020/12/28 02:34:43;;;;;;;32.80;14.50;;;;;;;-1.35;85.93;99704.90;1890207;75;22715;-64
2020/12/28 02:37:12;;;;;;;31.27;13.53;;;;;;;-1.38;85.69;99710.22;1859724;77;20928;-64
2020/12/28 02:39:48;;;;;;;33.90;13.28;;;;;;;-1.38;85.62;99702.14;1856372;76;21991;-66
2020/12/28 02:42:17;;;;;;;28.70;13.68;;;;;;;-1.37;85.58;99696.23;1778057;79;20983;-65
2020/12/28 02:45:03;;;;;;;27.07;13.72;;;;;;;-1.36;85.68;99704.08;1822994;78;21002;-66
2020/12/28 02:47:49;;;;;;;31.17;13.78;;;;;;;-1.34;85.33;99691.72;1822999;78;20939;-65
2020/12/28 02:50:35;;;;;;;34.43;13.45;;;;;;;-1.33;85.27;99683.94;1823034;78;21006;-65
2020/12/28 02:53:22;;;;;;;32.30;13.38;;;;;;;-1.32;85.17;99686.10;1822953;78;21373;-66
2020/12/28 02:56:08;;;;;;;29.95;12.85;;;;;;;-1.29;85.53;99682.94;1822954;78;21013;-65
2020/12/28 02:58:54;;;;;;;26.00;12.00;;;;;;;-1.26;85.31;99685.16;1823002;78;21017;-65
2020/12/28 03:01:41;;;;;;;26.17;12.82;;;;;;;-1.26;84.98;99685.98;1822928;78;20915;-65
2020/12/28 03:04:27;;;;;;;22.30;10.28;;;;;;;-1.26;84.84;99688.68;1822959;78;21163;-66
2020/12/28 03:07:13;;;;;;;24.35;11.90;;;;;;;-1.24;85.00;99681.18;1822973;78;21200;-66
2020/12/28 03:09:59;;;;;;;30.37;11.80;;;;;;;-1.23;84.86;99685.52;1822877;78;20981;-65
2020/12/28 03:12:45;;;;;;;22.42;10.30;;;;;;;-1.23;84.79;99666.66;1822947;78;21045;-66
2020/12/28 03:15:30;;;;;;;23.75;10.72;;;;;;;-1.22;84.57;99665.60;1823041;78;21498;-65
2020/12/28 03:18:16;;;;;;;18.07;8.73;;;;;;;-1.19;84.75;99667.01;1822944;78;20978;-66
2020/12/28 03:21:02;;;;;;;25.57;10.25;;;;;;;-1.17;83.99;99663.02;1822962;78;21256;-66
2020/12/28 03:23:49;;;;;;;22.60;10.35;;;;;;;-1.17;83.79;99654.12;1822899;78;20998;-65
2020/12/28 03:26:35;;;;;;;17.12;8.08;;;;;;;-1.15;83.93;99660.06;1822906;78;21567;-66
2020/12/28 03:29:23;;;;;;;21.73;9.15;;;;;;;-1.15;83.99;99656.02;1822913;78;20887;-66
2020/12/28 03:32:09;;;;;;;19.07;9.73;;;;;;;-1.14;83.77;99650.92;1822985;78;20998;-66
2020/12/28 03:34:55;;;;;;;21.60;10.05;;;;;;;-1.15;83.87;99643.37;1825887;78;21198;-66
2020/12/28 03:37:41;;;;;;;22.37;9.70;;;;;;;-1.13;83.91;99648.52;1826103;78;20973;-66
2020/12/28 03:40:27;;;;;;;22.93;8.85;;;;;;;-1.12;83.83;99648.28;1826152;78;21533;-66
2020/12/28 03:43:13;;;;;;;21.07;10.00;;;;;;;-1.11;83.71;99653.14;1812518;78;20891;-67
2020/12/28 03:45:59;;;;;;;24.00;9.43;;;;;;;-1.11;83.66;99651.80;1793284;79;21006;-67
2020/12/28 03:48:45;;;;;;;20.95;9.75;;;;;;;-1.11;84.32;99646.41;1818073;79;21369;-68
2020/12/28 03:51:32;;;;;;;19.25;9.10;;;;;;;-1.10;84.40;99646.70;1799514;79;20946;-66
2020/12/28 03:54:18;;;;;;;23.55;9.68;;;;;;;-1.10;84.33;99626.49;1798363;79;20989;-69
2020/12/28 03:57:04;;;;;;;20.55;9.10;;;;;;;-1.10;84.48;99623.80;1798404;79;20955;-65
2020/12/28 03:59:54;;;;;;;25.65;10.93;;;;;;;-1.07;84.22;99605.28;1873670;75;22634;-66
2020/12/28 04:02:41;;;;;;;22.98;10.08;;;;;;;-1.10;84.01;99622.45;1841688;78;20932;-66
2020/12/28 04:05:27;;;;;;;22.87;9.03;;;;;;;-1.11;84.07;99617.59;1841692;78;21259;-66
2020/12/28 04:08:15;;;;;;;22.87;9.05;;;;;;;-1.11;84.21;99604.13;1716969;82;20973;-66
2020/12/28 04:11:01;;;;;;;21.57;8.98;;;;;;;-1.11;84.33;99600.08;1708535;82;21512;-67
2020/12/28 04:13:39;;;;;;;20.92;10.00;;;;;;;-1.09;84.45;99597.15;1873728;76;23239;-65
2020/12/28 04:16:06;;;;;;;21.60;10.40;;;;;;;-1.13;84.51;99598.16;1841665;77;21051;-64
2020/12/28 04:18:34;;;;;;;27.13;10.78;;;;;;;-1.13;84.50;99592.77;1841649;78;21364;-64
2020/12/28 04:21:03;;;;;;;19.48;9.53;;;;;;;-1.13;84.60;99594.11;1841603;78;21004;-64
2020/12/28 04:23:30;;;;;;;23.38;8.08;;;;;;;-1.11;84.66;99587.14;1841628;77;21167;-65
2020/12/28 04:25:58;;;;;;;18.48;8.15;;;;;;;-1.11;84.55;99585.79;1841628;78;20881;-64
2020/12/28 04:28:26;;;;;;;23.92;10.13;;;;;;;-1.10;84.35;99590.13;1841696;77;20943;-65
2020/12/28 04:30:54;;;;;;;22.60;10.60;;;;;;;-1.09;84.45;99587.19;1841736;78;22257;-64
2020/12/28 04:33:21;;;;;;;23.35;9.35;;;;;;;-1.09;84.76;99584.50;1841552;78;20980;-66
2020/12/28 04:35:49;;;;;;;20.10;9.93;;;;;;;-1.08;84.47;99588.83;1841640;78;20913;-63
2020/12/28 04:38:17;;;;;;;20.72;10.43;;;;;;;-1.06;84.41;99584.55;1838960;78;20924;-69
2020/12/28 04:40:45;;;;;;;22.07;10.30;;;;;;;-1.06;84.44;99590.75;1808630;79;20980;-67
2020/12/28 04:43:13;;;;;;;25.62;10.68;;;;;;;-1.04;84.63;99585.12;1808679;79;23585;-67
2020/12/28 04:45:41;;;;;;;24.45;9.85;;;;;;;-1.03;84.41;99588.93;1808512;79;21023;-70
2020/12/28 04:48:09;;;;;;;20.43;9.60;;;;;;;-1.04;84.71;99583.78;1808615;79;21490;-67
2020/12/28 04:50:37;;;;;;;22.32;9.73;;;;;;;-1.01;84.52;99586.00;1808573;79;20920;-70
2020/12/28 04:53:05;;;;;;;21.97;9.45;;;;;;;-1.00;84.38;99584.94;1808599;79;20980;-69
2020/12/28 04:55:33;;;;;;;20.70;9.35;;;;;;;-1.01;84.17;99588.16;1808599;79;21196;-70
2020/12/28 04:58:01;;;;;;;20.97;9.78;;;;;;;-1.00;83.98;99589.80;1808553;79;21042;-73
2020/12/28 05:00:29;;;;;;;24.63;9.43;;;;;;;-0.98;83.94;99586.86;1808546;79;21534;-70
2020/12/28 05:02:57;;;;;;;24.00;10.93;;;;;;;-0.98;83.76;99592.25;1801549;78;20992;-71
2020/12/28 05:05:24;;;;;;;21.97;10.53;;;;;;;-0.96;83.96;99592.02;1792814;79;21114;-90
2020/12/28 05:07:53;;;;;;;22.25;10.30;;;;;;;-0.96;84.17;99591.48;1787186;79;21337;-76
2020/12/28 05:10:27;;;;;;;23.40;10.55;;;;;;;-0.95;83.99;99586.92;1774959;80;21185;-76
2020/12/28 05:12:59;;;;;;;25.23;11.88;;;;;;;-0.95;84.13;99596.34;1794212;78;21455;-81
2020/12/28 05:15:27;;;;;;;22.25;10.03;;;;;;;-0.96;84.24;99594.19;1787618;79;20959;-77
2020/12/28 05:17:55;;;;;;;23.25;10.28;;;;;;;-0.95;84.14;99601.21;1812174;79;20972;-80
2020/12/28 05:20:23;;;;;;;20.90;9.60;;;;;;;-0.95;84.00;99598.52;1783902;79;22337;-84
2020/12/28 05:22:52;;;;;;;25.37;10.50;;;;;;;-0.94;83.80;99596.64;1791257;79;21057;-80
2020/12/28 05:25:24;;;;;;;29.60;11.20;;;;;;;-0.92;83.72;99594.52;1804490;79;21002;-74
2020/12/28 05:27:52;;;;;;;22.52;11.28;;;;;;;-0.91;83.67;99594.81;1811165;77;21594;-82
2020/12/28 05:30:24;;;;;;;27.42;11.48;;;;;;;-0.92;83.58;99585.91;1692269;81;21090;-87
2020/12/28 05:32:53;;;;;;;30.90;11.43;;;;;;;-0.93;83.39;99576.19;1735742;81;21558;-85
2020/12/28 05:35:21;;;;;;;23.60;10.70;;;;;;;-0.94;83.29;99581.29;1796049;80;21313;-80
2020/12/28 05:37:48;;;;;;;25.95;10.38;;;;;;;-0.93;83.48;99581.58;1787406;80;21445;-74
2020/12/28 05:40:17;;;;;;;22.17;10.18;;;;;;;-0.90;83.36;99588.36;1710967;80;21069;-78
2020/12/28 05:42:51;;;;;;;22.17;10.20;;;;;;;-0.91;83.11;99575.95;1759038;80;21001;-80
2020/12/28 05:45:19;;;;;;;22.87;10.78;;;;;;;-0.91;82.93;99583.50;1787462;80;21355;-78
2020/12/28 05:47:56;;;;;;;26.48;10.60;;;;;;;-0.91;83.17;99567.86;1787403;80;20934;-83
2020/12/28 05:50:26;;;;;;;21.55;9.88;;;;;;;-0.90;83.16;99576.23;1787362;80;20947;-72
2020/12/28 05:53:01;;;;;;;24.92;10.93;;;;;;;-0.91;83.03;99574.60;1796151;80;20990;-76
2020/12/28 05:55:31;;;;;;;26.75;10.78;;;;;;;-0.91;82.94;99565.98;1787420;80;21013;-69
2020/12/28 05:57:59;;;;;;;24.20;10.63;;;;;;;-0.91;82.95;99564.64;1787384;80;21382;-74
2020/12/28 06:00:27;;;;;;;23.45;9.50;;;;;;;-0.89;82.84;99563.87;1787396;80;21521;-76
2020/12/28 06:02:58;;;;;;;23.95;10.03;;;;;;;-0.88;82.74;99557.42;1787282;80;20915;-76
2020/12/28 06:05:25;;;;;;;28.12;10.38;;;;;;;-0.88;82.43;99552.03;1734232;80;21062;-80
2020/12/28 06:07:53;;;;;;;31.00;11.88;;;;;;;-0.86;82.75;99559.34;1787405;80;20978;-78
2020/12/28 06:10:21;;;;;;;24.63;11.30;;;;;;;-0.84;82.56;99555.88;1787436;80;21194;-83
2020/12/28 06:12:57;;;;;;;25.40;9.98;;;;;;;-0.82;82.23;99563.73;1784934;80;20958;-88
2020/12/28 06:15:24;;;;;;;26.95;10.08;;;;;;;-0.82;81.87;99559.16;1781673;79;21545;-79
2020/12/28 06:17:52;;;;;;;23.90;9.23;;;;;;;-0.82;81.91;99563.20;1781538;80;21612;-84
2020/12/28 06:20:23;;;;;;;19.12;9.13;;;;;;;-0.80;81.98;99562.95;1753718;80;20942;-91
2020/12/28 06:22:51;;;;;;;21.17;9.75;;;;;;;-0.81;81.91;99558.09;1710587;83;21372;-89
2020/12/28 06:25:18;;;;;;;19.52;8.85;;;;;;;-0.78;81.75;99561.66;1698200;84;21085;-85
2020/12/28 06:27:46;;;;;;;25.35;10.90;;;;;;;-0.78;81.72;99563.01;1720794;82;21485;-78
2020/12/28 06:30:16;;;;;;;22.65;10.43;;;;;;;-0.77;81.96;99549.00;1720767;83;21020;-83
2020/12/28 06:32:46;;;;;;;20.27;9.15;;;;;;;-0.75;81.89;99538.80;1720755;83;21154;-85
2020/12/28 06:35:15;;;;;;;22.48;9.70;;;;;;;-0.74;82.01;99534.51;1720850;83;22251;-84
2020/12/28 06:37:50;;;;;;;20.82;9.35;;;;;;;-0.73;81.89;99522.66;1720708;83;21123;-78
2020/12/28 06:40:36;;;;;;;21.70;9.98;;;;;;;-0.72;82.49;99509.47;1720696;83;20941;-81
2020/12/28 06:43:15;;;;;;;20.55;9.68;;;;;;;-0.72;81.99;99520.25;1720804;83;21583;-83
2020/12/28 06:45:45;;;;;;;21.90;9.53;;;;;;;-0.70;82.40;99518.14;1720805;83;21005;-81
2020/12/28 06:48:26;;;;;;;17.07;8.70;;;;;;;-0.67;82.74;99518.18;1733042;80;22565;-85
2020/12/28 06:50:57;;;;;;;21.70;9.53;;;;;;;-0.64;82.46;99520.39;1750542;82;21264;-79
2020/12/28 06:53:26;;;;;;;18.73;9.45;;;;;;;-0.61;82.21;99524.48;1749440;82;21155;-82
2020/12/28 06:56:07;;;;;;;24.85;9.43;;;;;;;-0.59;82.34;99506.18;1750633;82;20988;-70
2020/12/28 06:58:36;;;;;;;19.17;9.08;;;;;;;-0.57;81.83;99511.59;1750709;82;20927;-83
2020/12/28 07:01:05;;;;;;;18.90;8.40;;;;;;;-0.54;81.93;99505.70;1750610;82;23615;-72
2020/12/28 07:03:33;;;;;;;20.77;9.33;;;;;;;-0.52;81.36;99496.02;1750496;82;20953;-75
2020/12/28 07:06:02;;;;;;;17.65;8.08;;;;;;;-0.48;81.56;99511.47;1750627;82;21506;-73
2020/12/28 07:08:30;;;;;;;19.70;9.00;;;;;;;-0.46;81.33;99497.74;1750584;80;21064;-75
2020/12/28 07:11:05;;;;;;;21.77;9.20;;;;;;;-0.42;81.50;99492.15;1750660;82;21479;-76
2020/12/28 07:13:33;;;;;;;26.35;10.10;;;;;;;-0.38;81.72;99502.73;1755311;81;21211;-73
2020/12/28 07:16:07;;;;;;;19.70;9.30;;;;;;;-0.36;81.47;99510.86;1759662;81;21036;-81
2020/12/28 07:18:35;;;;;;;20.43;10.05;;;;;;;-0.32;81.37;99515.77;1759767;81;20973;-81
2020/12/28 07:21:04;;;;;;;19.75;10.38;;;;;;;-0.32;81.68;99519.28;1759725;80;20988;-78
2020/12/28 07:23:32;;;;;;;19.15;9.08;;;;;;;-0.29;81.26;99521.49;1759758;81;21174;-72
2020/12/28 07:26:10;;;;;;;17.55;7.97;;;;;;;-0.29;81.62;99522.84;1759750;81;22235;-71
2020/12/28 07:28:40;;;;;;;19.87;9.50;;;;;;;-0.30;81.23;99506.37;1759707;81;20905;-80
2020/12/28 07:31:08;;;;;;;22.25;9.55;;;;;;;-0.28;81.53;99508.82;1759747;81;21055;-75
2020/12/28 07:33:46;;;;;;;19.45;9.05;;;;;;;-0.28;81.68;99513.69;1759692;81;21016;-84
2020/12/28 07:36:15;;;;;;;18.42;8.48;;;;;;;-0.25;81.45;99507.80;1759763;81;21115;-78
2020/12/28 07:38:48;;;;;;;17.65;8.15;;;;;;;-0.23;81.48;99500.81;1759721;80;21543;-76
2020/12/28 07:41:19;;;;;;;22.62;9.18;;;;;;;-0.23;81.69;99511.06;1759684;81;20986;-76
2020/12/28 07:43:56;;;;;;;25.37;9.58;;;;;;;-0.19;81.92;99506.81;1759737;81;21088;-75
2020/12/28 07:46:35;;;;;;;16.87;8.23;;;;;;;-0.15;81.68;99498.52;1759756;80;20988;-75
2020/12/28 07:49:16;;;;;;;19.67;9.25;;;;;;;-0.12;81.88;99492.63;1759699;81;20945;-74
2020/12/28 07:51:49;;;;;;;26.73;10.98;;;;;;;-0.07;81.83;99497.28;1759844;81;21205;-74
2020/12/28 07:54:23;;;;;;;22.48;9.65;;;;;;;-0.07;81.82;99488.66;1759141;81;21515;-72
2020/12/28 07:57:00;;;;;;;19.92;9.85;;;;;;;-0.05;81.85;99491.10;1759745;81;21032;-83
2020/12/28 07:59:50;;;;;;;20.95;9.78;;;;;;;-0.06;81.81;99494.34;1759635;81;20929;-77
2020/12/28 08:02:57;;;;;;;18.75;8.88;;;;;;;-0.03;82.03;99488.44;1759431;81;21072;-82
2020/12/28 08:05:25;;;;;;;18.82;8.73;;;;;;;-0.01;82.31;99490.36;1759815;81;22280;-84
2020/12/28 08:07:54;;;;;;;15.32;7.55;;;;;;;0.02;82.23;99486.31;1734378;81;21016;-82
2020/12/28 08:10:22;;;;;;;21.25;8.95;;;;;;;0.01;82.07;99473.89;1759666;80;21146;-84
2020/12/28 08:12:52;;;;;;;28.52;10.72;;;;;;;-0.01;82.05;99467.42;1758520;81;20898;-74
2020/12/28 08:15:31;;;;;;;38.70;11.28;;;;;;;-0.04;82.37;99457.12;1750636;82;20933;-74
2020/12/28 08:18:11;;;;;;;39.27;11.15;;;;;;;-0.06;82.46;99463.30;1750604;81;21342;-73
2020/12/28 08:20:40;;;;;;;23.22;8.38;;;;;;;-0.05;82.88;99454.67;1750589;80;21619;-73
2020/12/28 08:23:08;;;;;;;32.03;10.70;;;;;;;-0.05;82.72;99459.53;1750574;82;21060;-73
2020/12/28 08:25:36;;;;;;;21.07;8.03;;;;;;;-0.04;83.24;99462.52;1750548;82;20941;-73
2020/12/28 08:28:04;;;;;;;70.67;11.85;;;;;;;-0.04;83.12;99439.58;1750470;82;21155;-76
2020/12/28 08:30:32;;;;;;;38.83;10.75;;;;;;;-0.04;83.20;99439.58;1750561;82;21270;-72
2020/12/28 08:33:01;;;;;;;21.05;8.40;;;;;;;-0.04;83.21;99439.58;1750438;82;20991;-74
2020/12/28 08:35:30;;;;;;;29.45;10.30;;;;;;;-0.04;83.41;99440.93;1721873;82;21526;-72
2020/12/28 08:37:58;;;;;;;29.30;11.78;;;;;;;-0.01;83.49;99440.44;1750540;82;20937;-74
2020/12/28 08:40:27;;;;;;;24.20;8.33;;;;;;;0.03;83.59;99442.07;1750520;80;20925;-76
2020/12/28 08:42:57;;;;;;;33.55;11.78;;;;;;;0.04;83.30;99429.39;1750594;82;21414;-77
2020/12/28 08:45:27;;;;;;;28.05;10.88;;;;;;;0.06;83.37;99427.26;1750381;82;21154;-73
2020/12/28 08:47:57;;;;;;;25.85;9.43;;;;;;;0.08;83.37;99423.78;1741252;80;21141;-78
2020/12/28 08:50:26;;;;;;;61.42;14.60;;;;;;;0.10;83.48;99424.34;1730636;82;21579;-73
2020/12/28 08:52:54;;;;;;;34.20;11.38;;;;;;;0.10;83.54;99431.09;1719309;82;21136;-73
2020/12/28 08:55:22;;;;;;;32.35;10.45;;;;;;;0.11;83.59;99427.33;1720681;83;21376;-74
2020/12/28 08:57:56;;;;;;;24.92;9.35;;;;;;;0.11;84.17;99416.53;1718217;83;20964;-71
2020/12/28 09:00:23;;;;;;;;;;;;;;;0.11;84.00;99408.44;1723360;83;21546;-69
2020/12/28 09:02:58;;;;;;;27.45;9.85;;;;;;;0.08;84.15;99390.04;1718234;83;20219;-72
2020/12/28 09:05:30;;;;;;;42.83;12.82;;;;;;;0.07;84.75;99404.06;1718180;83;21057;-74
2020/12/28 09:07:58;;;;;;;29.15;10.25;;;;;;;0.08;84.50;99407.58;1718640;83;21328;-73
2020/12/28 09:10:26;;;;;;;29.25;10.98;;;;;;;0.07;84.63;99414.05;1728822;81;21558;-78
2020/12/28 09:12:54;;;;;;;23.45;9.30;;;;;;;0.06;84.93;99407.83;1718456;82;20996;-74
2020/12/28 09:15:21;;;;;;;20.72;9.10;;;;;;;0.07;84.97;99401.91;1731849;82;21171;-77
2020/12/28 09:17:49;;;;;;;22.80;10.00;;;;;;;0.07;84.96;99390.57;1732005;82;21053;-76
2020/12/28 09:20:17;;;;;;;22.00;9.50;;;;;;;0.08;85.77;99376.02;1731915;82;22347;-74
2020/12/28 09:22:44;;;;;;;20.90;9.45;;;;;;;0.11;85.32;99366.59;1731952;82;21123;-78
2020/12/28 09:25:11;;;;;;;22.17;9.38;;;;;;;0.10;85.26;99362.27;1731947;82;21214;-72
2020/12/28 09:27:39;;;;;;;23.38;10.20;;;;;;;0.08;85.54;99363.05;1701178;84;21089;-75
2020/12/28 09:30:07;;;;;;;20.08;8.55;;;;;;;0.08;86.12;99367.91;1731957;82;21075;-78
2020/12/28 09:32:36;;;;;;;24.72;9.88;;;;;;;0.07;86.81;99368.16;1720736;82;21206;-75
2020/12/28 09:35:05;;;;;;;24.45;10.03;;;;;;;0.06;87.82;99361.95;1726476;81;21112;-74
2020/12/28 09:37:32;;;;;;;22.02;9.73;;;;;;;0.05;87.80;99358.97;1726409;83;21614;-75
2020/12/28 09:40:00;;;;;;;21.65;9.70;;;;;;;0.03;87.96;99364.34;1726488;83;21492;-72
2020/12/28 09:42:27;;;;;;;21.02;8.55;;;;;;;0.02;88.14;99364.05;1726590;83;21071;-73
2020/12/28 09:44:55;;;;;;;23.27;10.25;;;;;;;0.02;88.20;99371.62;1726460;83;21199;-72
2020/12/28 09:47:22;;;;;;;28.47;11.43;;;;;;;-0.01;88.00;99376.20;1726528;83;21146;-73
2020/12/28 09:49:52;;;;;;;27.13;10.70;;;;;;;-0.01;88.56;99361.35;1726413;83;20906;-74
2020/12/28 09:52:21;;;;;;;21.93;10.23;;;;;;;-0.01;87.98;99339.23;1726435;83;21608;-77
2020/12/28 09:54:50;;;;;;;30.40;10.70;;;;;;;0.00;87.91;99356.23;1726460;83;21076;-75
2020/12/28 09:57:17;;;;;;;22.77;10.58;;;;;;;-0.01;88.11;99337.87;1726903;83;21484;-76
2020/12/28 09:59:47;;;;;;;24.02;10.70;;;;;;;0.01;87.94;99326.80;1727032;83;21493;-75
2020/12/28 10:02:15;;;;;;;21.95;10.70;;;;;;;0.00;87.94;99327.34;1726655;83;21147;-75
2020/12/28 10:04:43;;;;;;;27.27;10.18;;;;;;;0.02;88.34;99323.56;1726453;83;21632;-76
2020/12/28 10:07:11;;;;;;;17.02;8.78;;;;;;;0.04;88.11;99328.18;1726464;83;21155;-77
2020/12/28 10:09:39;;;;;;;28.10;11.03;;;;;;;0.03;88.05;99330.06;1726470;83;21269;-77
2020/12/28 10:12:06;;;;;;;21.97;9.88;;;;;;;0.04;88.05;99328.18;1726360;83;21076;-73
2020/12/28 10:14:33;;;;;;;21.82;10.18;;;;;;;0.05;88.18;99307.69;1736479;82;21523;-72
2020/12/28 10:17:02;;;;;;;26.42;10.50;;;;;;;0.03;88.23;99288.23;1746356;82;21173;-69
2020/12/28 10:19:29;;;;;;;21.25;9.35;;;;;;;0.04;88.54;99284.47;1746401;82;21493;-71
2020/12/28 10:22:01;;;;;;;22.65;10.13;;;;;;;0.06;88.33;99280.16;1757304;81;21399;-71
2020/12/28 10:24:29;;;;;;;23.02;10.80;;;;;;;0.07;88.35;99277.75;1749091;82;20908;-71
2020/12/28 10:26:57;;;;;;;28.55;11.85;;;;;;;0.09;88.97;99260.77;1696525;82;20943;-77
2020/12/28 10:29:24;;;;;;;20.85;10.20;;;;;;;0.12;88.58;99246.23;1748900;82;21014;-77
2020/12/28 10:31:57;;;;;;;24.80;11.78;;;;;;;0.16;88.52;99239.78;1749129;82;21070;-77
2020/12/28 10:34:25;;;;;;;22.40;9.28;;;;;;;0.19;88.66;99231.17;1749082;82;21450;-89
2020/12/28 10:36:54;;;;;;;23.32;11.25;;;;;;;0.21;88.48;99234.44;1757401;81;21561;-78
2020/12/28 10:39:22;;;;;;;25.62;11.73;;;;;;;0.22;88.61;99250.38;1749000;82;21037;-89
2020/12/28 10:41:50;;;;;;;22.82;10.75;;;;;;;0.28;89.19;99240.44;1749002;82;21090;-74
2020/12/28 10:44:19;;;;;;;23.45;10.48;;;;;;;0.30;88.34;99248.56;1749021;81;21235;-82
2020/12/28 10:46:47;;;;;;;21.12;10.20;;;;;;;0.26;88.30;99235.30;1749047;82;21370;-86
2020/12/28 10:49:14;;;;;;;20.95;10.00;;;;;;;0.24;88.62;99235.27;1749001;82;21022;-80
2020/12/28 10:51:44;;;;;;;19.15;8.83;;;;;;;0.23;88.60;99235.81;1749021;82;21148;-79
2020/12/28 10:54:12;;;;;;;22.60;8.68;;;;;;;0.20;88.63;99243.60;1749030;82;21152;-78
2020/12/28 10:56:40;;;;;;;27.27;11.65;;;;;;;0.15;88.85;99255.70;1757267;81;21081;-76
2020/12/28 10:59:09;;;;;;;26.12;10.75;;;;;;;0.12;88.99;99257.02;1748923;82;21398;-77
2020/12/28 11:01:37;;;;;;;24.47;10.80;;;;;;;0.12;89.10;99255.67;1748985;82;20927;-78
2020/12/28 11:04:04;;;;;;;27.02;11.53;;;;;;;0.15;89.28;99254.34;1748999;82;21112;-76
2020/12/28 11:06:32;;;;;;;23.95;11.95;;;;;;;0.14;89.46;99244.09;1749077;82;21184;-78
2020/12/28 11:08:59;;;;;;;24.87;10.72;;;;;;;0.14;89.36;99243.27;1748957;82;21070;-81
2020/12/28 11:11:27;;;;;;;25.95;10.98;;;;;;;0.15;89.70;99251.12;1749011;82;21733;-80
2020/12/28 11:13:55;;;;;;;27.62;12.23;;;;;;;0.16;89.79;99260.84;1749585;81;21564;-77
2020/12/28 11:22:59;;;;;;;24.92;11.40;;;;;;;0.14;90.68;99237.88;1804288;77;26436;-86
2020/12/28 11:25:27;;;;;;;31.87;11.93;;;;;;;0.09;90.56;99230.54;1751068;80;20994;-80
2020/12/28 11:27:55;;;;;;;28.65;12.40;;;;;;;0.08;90.63;99237.00;1753723;80;21203;-77
2020/12/28 11:30:23;;;;;;;29.23;12.93;;;;;;;0.05;91.07;99222.67;1778639;80;21084;-78
2020/12/28 11:32:50;;;;;;;23.25;10.93;;;;;;;0.06;91.05;99236.98;1780148;80;20923;-80
2020/12/28 11:35:18;;;;;;;24.85;10.58;;;;;;;0.05;91.50;99233.47;1779500;80;21175;-80
2020/12/28 11:37:45;;;;;;;31.77;14.43;;;;;;;0.06;91.71;99234.28;1778816;80;21160;-78
2020/12/28 11:40:12;;;;;;;26.45;12.30;;;;;;;0.05;91.58;99230.77;1759643;80;21448;-80
2020/12/28 11:42:40;;;;;;;26.60;12.33;;;;;;;0.06;91.66;99241.84;1770567;80;20982;-75
2020/12/28 11:45:08;;;;;;;26.23;12.53;;;;;;;0.06;92.08;99222.14;1778883;79;21056;-75
2020/12/28 11:47:38;;;;;;;28.52;12.98;;;;;;;0.08;92.01;99214.59;1779461;80;21267;-77